KBAM/BAM METAR and TAF weather

Enter ICAO airport designator
Station Type Date Time Source
KBAM METAR 2022/01/26 20:35 UTC NOAA

KBAM 262035Z AUTO 00000KT 10SM CLR 04/M07 A3026 RMK AO1


Station Type Date Time Source
KBAM Decoded METAR 2022/01/26 20:35 UTC NOAA

Station name not available
Jan 26, 2022 - 03:35 PM EST / 2022.01.26 2035 UTC
Wind: Calm:0
Visibility: 10 mile(s):0
Sky conditions: clear
Temperature: 39 F (4 C)
Dew Point: 19 F (-7 C)
Relative Humidity: 44%
Pressure (altimeter): 30.26 in. Hg (1024 hPa)
ob: KBAM 262035Z AUTO 00000KT 10SM CLR 04/M07 A3026 RMK AO1
cycle: 20

Station Type Date Time Source
KBAM TAF 2022/01/26 18:22 UTC NOAA

TAF KBAM 261720Z 2618/2718 05005KT P6SM SCT180
FM270300 06006KT P6SM FEW250

Example: see airport list